sensor_id;sensor_type;location;lat;lon;timestamp;pressure;altitude;pressure_sealevel;temperature;humidity
78990;BME280;68390;52.130;21.218;2023-09-19T00:00:33;99913.66;;;17.41;90.90
78990;BME280;68390;52.130;21.218;2023-09-19T00:02:59;99916.66;;;17.39;90.97
78990;BME280;68390;52.130;21.218;2023-09-19T00:05:29;99910.47;;;17.37;91.05
78990;BME280;68390;52.130;21.218;2023-09-19T00:07:56;99915.41;;;17.35;91.50
78990;BME280;68390;52.130;21.218;2023-09-19T00:10:24;99920.09;;;17.35;91.32
78990;BME280;68390;52.130;21.218;2023-09-19T00:12:56;99906.69;;;17.32;91.52
78990;BME280;68390;52.130;21.218;2023-09-19T00:15:24;99906.91;;;17.30;91.28
78990;BME280;68390;52.130;21.218;2023-09-19T00:17:51;99913.53;;;17.29;91.36
78990;BME280;68390;52.130;21.218;2023-09-19T00:20:18;99911.84;;;17.28;91.69
78990;BME280;68390;52.130;21.218;2023-09-19T00:22:43;99903.72;;;17.27;91.85
78990;BME280;68390;52.130;21.218;2023-09-19T00:25:10;99905.66;;;17.26;91.72
78990;BME280;68390;52.130;21.218;2023-09-19T00:27:39;99905.66;;;17.26;92.03
78990;BME280;68390;52.130;21.218;2023-09-19T00:30:06;99898.88;;;17.22;91.94
78990;BME280;68390;52.130;21.218;2023-09-19T00:32:33;99912.91;;;17.27;92.08
78990;BME280;68390;52.130;21.218;2023-09-19T00:34:59;99908.66;;;17.24;91.74
78990;BME280;68390;52.130;21.218;2023-09-19T00:37:24;99889.91;;;17.20;92.02
78990;BME280;68390;52.130;21.218;2023-09-19T00:39:52;99895.47;;;17.20;91.93
78990;BME280;68390;52.130;21.218;2023-09-19T00:42:19;99897.38;;;17.19;92.01
78990;BME280;68390;52.130;21.218;2023-09-19T00:44:47;99892.91;;;17.18;92.31
78990;BME280;68390;52.130;21.218;2023-09-19T00:47:12;99889.06;;;17.19;92.35
78990;BME280;68390;52.130;21.218;2023-09-19T00:49:44;99888.22;;;17.19;91.78
78990;BME280;68390;52.130;21.218;2023-09-19T00:52:11;99884.41;;;17.13;92.46
78990;BME280;68390;52.130;21.218;2023-09-19T00:54:37;99891.22;;;17.17;92.57
78990;BME280;68390;52.130;21.218;2023-09-19T00:57:03;99883.09;;;17.16;92.45
78990;BME280;68390;52.130;21.218;2023-09-19T00:59:28;99879.25;;;17.17;92.44
78990;BME280;68390;52.130;21.218;2023-09-19T01:01:56;99879.25;;;17.17;92.67
78990;BME280;68390;52.130;21.218;2023-09-19T01:04:22;99873.09;;;17.15;92.39
78990;BME280;68390;52.130;21.218;2023-09-19T01:06:48;99880.56;;;17.14;92.72
78990;BME280;68390;52.130;21.218;2023-09-19T01:09:19;99877.78;;;17.14;92.54
78990;BME280;68390;52.130;21.218;2023-09-19T01:11:46;99869.72;;;17.13;92.47
78990;BME280;68390;52.130;21.218;2023-09-19T01:16:52;99873.56;;;17.12;92.77
78990;BME280;68390;52.130;21.218;2023-09-19T01:22:47;99868.66;;;17.07;93.30
78990;BME280;68390;52.130;21.218;2023-09-19T01:30:58;99862.72;;;17.04;93.18
78990;BME280;68390;52.130;21.218;2023-09-19T01:33:26;99854.38;;;17.04;92.91
78990;BME280;68390;52.130;21.218;2023-09-19T01:35:52;99844.38;;;17.03;93.21
78990;BME280;68390;52.130;21.218;2023-09-19T01:38:19;99841.00;;;17.01;93.24
78990;BME280;68390;52.130;21.218;2023-09-19T01:40:53;99839.75;;;16.97;93.46
78990;BME280;68390;52.130;21.218;2023-09-19T01:43:34;99837.19;;;16.95;93.44
78990;BME280;68390;52.130;21.218;2023-09-19T01:46:20;99836.34;;;16.95;93.63
78990;BME280;68390;52.130;21.218;2023-09-19T01:52:09;99841.09;;;16.87;94.24
78990;BME280;68390;52.130;21.218;2023-09-19T01:54:48;99832.13;;;16.85;93.82
78990;BME280;68390;52.130;21.218;2023-09-19T01:57:22;99831.50;;;16.83;94.20
78990;BME280;68390;52.130;21.218;2023-09-19T02:00:08;99838.13;;;16.82;94.32
78990;BME280;68390;52.130;21.218;2023-09-19T02:02:42;99828.72;;;16.83;94.12
78990;BME280;68390;52.130;21.218;2023-09-19T02:05:09;99835.13;;;16.84;94.40
78990;BME280;68390;52.130;21.218;2023-09-19T02:07:35;99828.56;;;16.78;94.29
78990;BME280;68390;52.130;21.218;2023-09-19T02:10:04;99829.59;;;16.84;94.20
78990;BME280;68390;52.130;21.218;2023-09-19T02:12:31;99831.50;;;16.83;94.50
78990;BME280;68390;52.130;21.218;2023-09-19T02:14:58;99827.88;;;16.83;94.33
78990;BME280;68390;52.130;21.218;2023-09-19T02:17:27;99830.00;;;16.87;94.54
78990;BME280;68390;52.130;21.218;2023-09-19T02:19:55;99826.59;;;16.85;94.35
78990;BME280;68390;52.130;21.218;2023-09-19T02:22:23;99822.53;;;16.88;94.30
78990;BME280;68390;52.130;21.218;2023-09-19T02:24:50;99827.00;;;16.89;94.11
78990;BME280;68390;52.130;21.218;2023-09-19T02:27:16;99822.31;;;16.90;94.11
78990;BME280;68390;52.130;21.218;2023-09-19T02:29:42;99831.25;;;16.92;93.99
78990;BME280;68390;52.130;21.218;2023-09-19T02:32:07;99829.56;;;16.91;94.31
78990;BME280;68390;52.130;21.218;2023-09-19T02:34:34;99819.75;;;16.88;94.36
78990;BME280;68390;52.130;21.218;2023-09-19T02:37:02;99816.56;;;16.84;94.41
78990;BME280;68390;52.130;21.218;2023-09-19T02:39:30;99812.31;;;16.82;94.27
78990;BME280;68390;52.130;21.218;2023-09-19T02:41:55;99806.56;;;16.83;94.37
78990;BME280;68390;52.130;21.218;2023-09-19T02:44:21;99807.63;;;16.82;94.04
78990;BME280;68390;52.130;21.218;2023-09-19T02:46:46;99797.00;;;16.79;94.43
78990;BME280;68390;52.130;21.218;2023-09-19T02:49:12;99808.72;;;16.81;94.54
78990;BME280;68390;52.130;21.218;2023-09-19T02:51:38;99801.47;;;16.80;94.36
78990;BME280;68390;52.130;21.218;2023-09-19T02:54:04;99796.78;;;16.81;94.46
78990;BME280;68390;52.130;21.218;2023-09-19T02:56:29;99795.75;;;16.75;94.62
78990;BME280;68390;52.130;21.218;2023-09-19T02:58:56;99810.66;;;16.81;94.57
78990;BME280;68390;52.130;21.218;2023-09-19T03:01:21;99793.81;;;16.76;94.83
78990;BME280;68390;52.130;21.218;2023-09-19T03:03:47;99790.03;;;16.70;95.19
78990;BME280;68390;52.130;21.218;2023-09-19T03:06:13;99798.34;;;16.70;95.09
78990;BME280;68390;52.130;21.218;2023-09-19T03:08:39;99793.88;;;16.69;94.98
78990;BME280;68390;52.130;21.218;2023-09-19T03:11:07;99784.94;;;16.67;95.00
78990;BME280;68390;52.130;21.218;2023-09-19T03:13:35;99777.91;;;16.65;95.13
78990;BME280;68390;52.130;21.218;2023-09-19T03:16:03;99770.03;;;16.62;95.51
78990;BME280;68390;52.130;21.218;2023-09-19T03:18:31;99770.47;;;16.59;95.68
78990;BME280;68390;52.130;21.218;2023-09-19T03:20:57;99779.84;;;16.58;95.45
78990;BME280;68390;52.130;21.218;2023-09-19T03:23:25;99769.22;;;16.55;96.02
78990;BME280;68390;52.130;21.218;2023-09-19T03:25:51;99770.75;;;16.50;96.29
78990;BME280;68390;52.130;21.218;2023-09-19T03:28:17;99769.91;;;16.50;96.34
78990;BME280;68390;52.130;21.218;2023-09-19T03:30:43;99765.88;;;16.46;96.45
78990;BME280;68390;52.130;21.218;2023-09-19T03:33:08;99767.38;;;16.42;96.35
78990;BME280;68390;52.130;21.218;2023-09-19T03:35:37;99771.84;;;16.43;96.50
78990;BME280;68390;52.130;21.218;2023-09-19T03:38:03;99759.06;;;16.42;96.64
78990;BME280;68390;52.130;21.218;2023-09-19T03:40:29;99756.50;;;16.40;96.87
78990;BME280;68390;52.130;21.218;2023-09-19T03:42:55;99761.69;;;16.37;96.79
78990;BME280;68390;52.130;21.218;2023-09-19T03:45:20;99758.50;;;16.33;97.27
78990;BME280;68390;52.130;21.218;2023-09-19T03:47:45;99764.47;;;16.30;97.15
78990;BME280;68390;52.130;21.218;2023-09-19T03:50:14;99757.00;;;16.31;96.85
78990;BME280;68390;52.130;21.218;2023-09-19T03:52:45;99760.88;;;16.30;96.98
78990;BME280;68390;52.130;21.218;2023-09-19T03:55:11;99760.88;;;16.30;97.35
78990;BME280;68390;52.130;21.218;2023-09-19T03:57:37;99766.41;;;16.30;97.15
78990;BME280;68390;52.130;21.218;2023-09-19T04:00:03;99755.78;;;16.27;97.72
78990;BME280;68390;52.130;21.218;2023-09-19T04:02:30;99756.84;;;16.26;97.88
78990;BME280;68390;52.130;21.218;2023-09-19T04:04:58;99764.03;;;16.33;97.61
78990;BME280;68390;52.130;21.218;2023-09-19T04:07:23;99764.44;;;16.37;97.66
78990;BME280;68390;52.130;21.218;2023-09-19T04:09:51;99761.47;;;16.38;97.47
78990;BME280;68390;52.130;21.218;2023-09-19T04:12:18;99750.53;;;16.43;97.37
78990;BME280;68390;52.130;21.218;2023-09-19T04:14:44;99747.53;;;16.45;96.99
78990;BME280;68390;52.130;21.218;2023-09-19T04:17:09;99743.69;;;16.46;97.40
78990;BME280;68390;52.130;21.218;2023-09-19T04:19:36;99737.72;;;16.49;96.75
78990;BME280;68390;52.130;21.218;2023-09-19T04:22:01;99740.88;;;16.52;96.87
78990;BME280;68390;52.130;21.218;2023-09-19T04:24:26;99731.47;;;16.53;96.42
78990;BME280;68390;52.130;21.218;2023-09-19T04:26:52;99729.13;;;16.57;96.63
78990;BME280;68390;52.130;21.218;2023-09-19T04:29:17;99732.53;;;16.59;96.55
78990;BME280;68390;52.130;21.218;2023-09-19T04:31:44;99721.44;;;16.59;96.52
78990;BME280;68390;52.130;21.218;2023-09-19T04:34:10;99721.44;;;16.59;96.67
78990;BME280;68390;52.130;21.218;2023-09-19T04:36:43;99722.03;;;16.61;96.26
78990;BME280;68390;52.130;21.218;2023-09-19T04:39:08;99723.31;;;16.65;96.10
78990;BME280;68390;52.130;21.218;2023-09-19T04:41:36;99723.94;;;16.67;95.97
78990;BME280;68390;52.130;21.218;2023-09-19T04:44:04;99718.81;;;16.71;96.06
78990;BME280;68390;52.130;21.218;2023-09-19T04:46:30;99714.72;;;16.73;95.62
78990;BME280;68390;52.130;21.218;2023-09-19T04:48:55;99712.56;;;16.75;95.31
78990;BME280;68390;52.130;21.218;2023-09-19T04:51:20;99712.97;;;16.79;95.22
78990;BME280;68390;52.130;21.218;2023-09-19T04:53:46;99709.97;;;16.80;95.22
78990;BME280;68390;52.130;21.218;2023-09-19T04:56:11;99711.03;;;16.79;95.02
78990;BME280;68390;52.130;21.218;2023-09-19T04:58:36;99720.00;;;16.81;95.10
78990;BME280;68390;52.130;21.218;2023-09-19T05:01:02;99711.66;;;16.81;95.35
78990;BME280;68390;52.130;21.218;2023-09-19T05:03:28;99718.88;;;16.82;94.88
78990;BME280;68390;52.130;21.218;2023-09-19T05:05:53;99716.09;;;16.82;95.23
78990;BME280;68390;52.130;21.218;2023-09-19T05:08:19;99714.19;;;16.83;95.37
78990;BME280;68390;52.130;21.218;2023-09-19T05:10:44;99716.28;;;16.87;95.11
78990;BME280;68390;52.130;21.218;2023-09-19T05:13:10;99701.56;;;16.87;95.01
78990;BME280;68390;52.130;21.218;2023-09-19T05:15:37;99701.50;;;16.94;94.72
78990;BME280;68390;52.130;21.218;2023-09-19T05:18:02;99705.13;;;16.94;94.80
78990;BME280;68390;52.130;21.218;2023-09-19T05:20:28;99710.63;;;17.01;94.76
78990;BME280;68390;52.130;21.218;2023-09-19T05:23:02;99709.06;;;17.05;94.06
78990;BME280;68390;52.130;21.218;2023-09-19T05:25:34;99706.91;;;17.07;94.38
78990;BME280;68390;52.130;21.218;2023-09-19T05:28:03;99715.41;;;17.12;94.09
78990;BME280;68390;52.130;21.218;2023-09-19T05:30:31;99712.78;;;17.17;93.92
78990;BME280;68390;52.130;21.218;2023-09-19T05:32:57;99713.41;;;17.19;93.34
78990;BME280;68390;52.130;21.218;2023-09-19T05:35:23;99704.00;;;17.20;93.56
78990;BME280;68390;52.130;21.218;2023-09-19T05:37:52;99705.84;;;17.26;93.49
78990;BME280;68390;52.130;21.218;2023-09-19T05:40:18;99703.69;;;17.28;93.18
78990;BME280;68390;52.130;21.218;2023-09-19T05:42:45;99708.16;;;17.29;92.91
78990;BME280;68390;52.130;21.218;2023-09-19T05:45:12;99704.94;;;17.32;92.68
78990;BME280;68390;52.130;21.218;2023-09-19T05:47:40;99699.75;;;17.36;92.85
78990;BME280;68390;52.130;21.218;2023-09-19T05:50:10;99702.06;;;17.39;92.76
78990;BME280;68390;52.130;21.218;2023-09-19T05:52:36;99706.09;;;17.43;92.73
78990;BME280;68390;52.130;21.218;2023-09-19T05:55:06;99703.69;;;17.46;92.65
78990;BME280;68390;52.130;21.218;2023-09-19T05:57:35;99697.44;;;17.51;92.29
78990;BME280;68390;52.130;21.218;2023-09-19T06:00:00;99698.91;;;17.53;92.66
78990;BME280;68390;52.130;21.218;2023-09-19T06:02:26;99705.47;;;17.59;92.42
78990;BME280;68390;52.130;21.218;2023-09-19T06:04:55;99699.84;;;17.66;91.72
78990;BME280;68390;52.130;21.218;2023-09-19T06:07:22;99702.16;;;17.69;91.95
78990;BME280;68390;52.130;21.218;2023-09-19T06:09:51;99693.84;;;17.69;91.18
78990;BME280;68390;52.130;21.218;2023-09-19T06:12:19;99695.06;;;17.73;91.53
78990;BME280;68390;52.130;21.218;2023-09-19T06:14:44;99694.97;;;17.79;91.48
78990;BME280;68390;52.130;21.218;2023-09-19T06:17:09;99695.59;;;17.81;90.97
78990;BME280;68390;52.130;21.218;2023-09-19T06:19:35;99696.34;;;17.88;91.03
78990;BME280;68390;52.130;21.218;2023-09-19T06:22:01;99695.63;;;17.93;91.01
78990;BME280;68390;52.130;21.218;2023-09-19T06:24:26;99704.72;;;18.00;91.25
78990;BME280;68390;52.130;21.218;2023-09-19T06:26:52;99704.25;;;18.03;90.87
78990;BME280;68390;52.130;21.218;2023-09-19T06:29:18;99703.91;;;18.11;89.84
78990;BME280;68390;52.130;21.218;2023-09-19T06:31:43;99707.09;;;18.15;89.57
78990;BME280;68390;52.130;21.218;2023-09-19T06:34:10;99709.13;;;18.19;89.60
78990;BME280;68390;52.130;21.218;2023-09-19T06:36:35;99710.84;;;18.20;89.73
78990;BME280;68390;52.130;21.218;2023-09-19T06:39:01;99719.56;;;18.24;88.60
78990;BME280;68390;52.130;21.218;2023-09-19T06:41:29;99714.84;;;18.24;89.23
78990;BME280;68390;52.130;21.218;2023-09-19T06:43:55;99720.16;;;18.26;89.21
78990;BME280;68390;52.130;21.218;2023-09-19T06:46:20;99725.97;;;18.24;89.53
78990;BME280;68390;52.130;21.218;2023-09-19T06:48:45;99726.19;;;18.23;89.48
78990;BME280;68390;52.130;21.218;2023-09-19T06:51:13;99725.97;;;18.24;89.68
78990;BME280;68390;52.130;21.218;2023-09-19T06:53:41;99741.91;;;18.29;89.14
78990;BME280;68390;52.130;21.218;2023-09-19T06:56:06;99741.22;;;18.33;88.87
78990;BME280;68390;52.130;21.218;2023-09-19T06:58:32;99737.97;;;18.37;88.74
78990;BME280;68390;52.130;21.218;2023-09-19T07:00:57;99744.50;;;18.42;89.05
78990;BME280;68390;52.130;21.218;2023-09-19T07:03:22;99751.88;;;18.48;88.90
78990;BME280;68390;52.130;21.218;2023-09-19T07:05:51;99744.53;;;18.54;88.60
78990;BME280;68390;52.130;21.218;2023-09-19T07:08:18;99744.44;;;18.60;88.11
78990;BME280;68390;52.130;21.218;2023-09-19T07:10:45;99739.88;;;18.66;87.96
78990;BME280;68390;52.130;21.218;2023-09-19T07:13:14;99740.22;;;18.69;87.67
78990;BME280;68390;52.130;21.218;2023-09-19T07:15:42;99731.03;;;18.69;87.55
78990;BME280;68390;52.130;21.218;2023-09-19T07:18:15;99746.03;;;18.80;87.37
78990;BME280;68390;52.130;21.218;2023-09-19T07:20:44;99756.00;;;18.87;88.25
78990;BME280;68390;52.130;21.218;2023-09-19T07:23:20;99756.09;;;18.92;87.28
78990;BME280;68390;52.130;21.218;2023-09-19T07:25:46;99765.44;;;18.98;87.02
78990;BME280;68390;52.130;21.218;2023-09-19T07:28:14;99764.09;;;19.00;86.78
78990;BME280;68390;52.130;21.218;2023-09-19T07:30:40;99777.69;;;19.09;86.99
78990;BME280;68390;52.130;21.218;2023-09-19T07:33:07;99773.19;;;19.08;86.38
78990;BME280;68390;52.130;21.218;2023-09-19T07:35:33;99772.34;;;19.07;85.71
78990;BME280;68390;52.130;21.218;2023-09-19T07:37:59;99769.91;;;19.11;85.45
78990;BME280;68390;52.130;21.218;2023-09-19T07:40:27;99770.28;;;19.14;85.60
78990;BME280;68390;52.130;21.218;2023-09-19T07:42:57;99771.00;;;19.21;85.51
78990;BME280;68390;52.130;21.218;2023-09-19T07:45:27;99768.13;;;19.28;85.94
78990;BME280;68390;52.130;21.218;2023-09-19T07:47:53;99771.47;;;19.41;85.78
78990;BME280;68390;52.130;21.218;2023-09-19T07:50:19;99773.19;;;19.66;82.70
78990;BME280;68390;52.130;21.218;2023-09-19T07:52:46;99773.38;;;19.88;81.57
78990;BME280;68390;52.130;21.218;2023-09-19T07:55:11;99783.66;;;19.99;82.62
78990;BME280;68390;52.130;21.218;2023-09-19T07:57:45;99791.63;;;20.07;80.88
78990;BME280;68390;52.130;21.218;2023-09-19T08:00:11;99791.13;;;20.10;80.11
78990;BME280;68390;52.130;21.218;2023-09-19T08:02:37;99788.19;;;20.16;79.72
78990;BME280;68390;52.130;21.218;2023-09-19T08:05:07;99786.63;;;20.21;80.02
78990;BME280;68390;52.130;21.218;2023-09-19T08:07:37;99774.69;;;20.25;79.79
78990;BME280;68390;52.130;21.218;2023-09-19T08:10:04;99776.63;;;20.36;81.07
78990;BME280;68390;52.130;21.218;2023-09-19T08:12:29;99775.72;;;20.47;80.49
78990;BME280;68390;52.130;21.218;2023-09-19T08:14:55;99773.03;;;20.52;78.43
78990;BME280;68390;52.130;21.218;2023-09-19T08:17:21;99786.59;;;20.61;77.61
78990;BME280;68390;52.130;21.218;2023-09-19T08:19:48;99787.25;;;20.68;78.57
78990;BME280;68390;52.130;21.218;2023-09-19T08:22:18;99785.84;;;20.65;77.92
78990;BME280;68390;52.130;21.218;2023-09-19T08:24:43;99788.34;;;20.67;79.29
78990;BME280;68390;52.130;21.218;2023-09-19T08:27:09;99786.94;;;20.64;78.03
78990;BME280;68390;52.130;21.218;2023-09-19T08:29:35;99788.97;;;20.69;79.08
78990;BME280;68390;52.130;21.218;2023-09-19T08:32:01;99789.56;;;20.71;77.20
78990;BME280;68390;52.130;21.218;2023-09-19T08:34:26;99795.50;;;20.74;77.95
78990;BME280;68390;52.130;21.218;2023-09-19T08:36:55;99786.59;;;20.77;77.25
78990;BME280;68390;52.130;21.218;2023-09-19T08:39:26;99793.38;;;20.81;77.09
78990;BME280;68390;52.130;21.218;2023-09-19T08:41:58;99785.34;;;20.85;77.05
78990;BME280;68390;52.130;21.218;2023-09-19T08:44:24;99788.28;;;20.78;76.16
78990;BME280;68390;52.130;21.218;2023-09-19T08:46:54;99796.66;;;20.78;77.35
78990;BME280;68390;52.130;21.218;2023-09-19T08:49:27;99792.19;;;20.77;77.82
78990;BME280;68390;52.130;21.218;2023-09-19T08:52:10;99797.75;;;20.77;76.55
78990;BME280;68390;52.130;21.218;2023-09-19T08:54:38;99790.50;;;20.76;76.89
78990;BME280;68390;52.130;21.218;2023-09-19T08:57:07;99786.09;;;20.80;78.13
78990;BME280;68390;52.130;21.218;2023-09-19T08:59:39;99789.50;;;20.82;78.09
78990;BME280;68390;52.130;21.218;2023-09-19T09:02:13;99781.38;;;20.81;77.37
78990;BME280;68390;52.130;21.218;2023-09-19T09:04:43;99795.91;;;20.83;77.46
78990;BME280;68390;52.130;21.218;2023-09-19T09:07:13;99792.88;;;20.84;77.35
78990;BME280;68390;52.130;21.218;2023-09-19T09:09:39;99789.25;;;20.84;76.64
78990;BME280;68390;52.130;21.218;2023-09-19T09:12:12;99790.94;;;20.85;77.63
78990;BME280;68390;52.130;21.218;2023-09-19T09:14:39;99806.41;;;20.93;77.23
78990;BME280;68390;52.130;21.218;2023-09-19T09:17:05;99809.56;;;20.96;77.10
78990;BME280;68390;52.130;21.218;2023-09-19T09:19:30;99802.84;;;20.97;76.67
78990;BME280;68390;52.130;21.218;2023-09-19T09:22:06;99806.09;;;21.06;76.27
78990;BME280;68390;52.130;21.218;2023-09-19T09:24:31;99808.72;;;21.12;76.07
78990;BME280;68390;52.130;21.218;2023-09-19T09:27:06;99812.44;;;21.18;75.31
78990;BME280;68390;52.130;21.218;2023-09-19T09:29:49;99817.53;;;21.21;74.11
78990;BME280;68390;52.130;21.218;2023-09-19T09:32:30;99817.53;;;21.21;74.75
78990;BME280;68390;52.130;21.218;2023-09-19T09:35:00;99822.28;;;21.20;75.15
78990;BME280;68390;52.130;21.218;2023-09-19T09:37:27;99831.50;;;21.21;75.63
78990;BME280;68390;52.130;21.218;2023-09-19T09:39:59;99830.91;;;21.19;75.77
78990;BME280;68390;52.130;21.218;2023-09-19T09:42:44;99834.19;;;21.16;76.03
78990;BME280;68390;52.130;21.218;2023-09-19T09:47:45;99832.31;;;21.05;75.76
78990;BME280;68390;52.130;21.218;2023-09-19T09:52:58;99838.81;;;20.94;76.11
78990;BME280;68390;52.130;21.218;2023-09-19T09:56:04;99858.34;;;20.94;76.74
78990;BME280;68390;52.130;21.218;2023-09-19T09:58:36;99859.00;;;20.84;76.02
78990;BME280;68390;52.130;21.218;2023-09-19T10:01:02;99856.63;;;20.76;77.10
78990;BME280;68390;52.130;21.218;2023-09-19T10:03:38;99855.31;;;20.67;77.90
78990;BME280;68390;52.130;21.218;2023-09-19T10:06:10;99861.31;;;20.59;77.66
78990;BME280;68390;52.130;21.218;2023-09-19T10:12:06;99884.19;;;20.32;79.26
78990;BME280;68390;52.130;21.218;2023-09-19T10:14:35;99901.03;;;20.26;80.32
78990;BME280;68390;52.130;21.218;2023-09-19T10:17:05;99896.69;;;20.18;80.40
78990;BME280;68390;52.130;21.218;2023-09-19T10:19:36;99901.56;;;19.99;82.14
78990;BME280;68390;52.130;21.218;2023-09-19T10:22:04;99881.13;;;19.82;83.43
78990;BME280;68390;52.130;21.218;2023-09-19T10:24:33;99878.81;;;19.67;86.04
78990;BME280;68390;52.130;21.218;2023-09-19T10:26:59;99889.22;;;19.49;89.62
78990;BME280;68390;52.130;21.218;2023-09-19T10:29:27;99877.53;;;19.28;92.18
78990;BME280;68390;52.130;21.218;2023-09-19T10:31:58;99888.03;;;19.15;94.26
78990;BME280;68390;52.130;21.218;2023-09-19T10:34:23;99893.81;;;19.01;95.81
78990;BME280;68390;52.130;21.218;2023-09-19T10:36:51;99894.03;;;18.88;96.73
78990;BME280;68390;52.130;21.218;2023-09-19T10:39:16;99898.34;;;18.84;97.96
78990;BME280;68390;52.130;21.218;2023-09-19T10:41:50;99907.88;;;18.77;98.30
78990;BME280;68390;52.130;21.218;2023-09-19T10:44:25;99909.19;;;18.74;99.00
78990;BME280;68390;52.130;21.218;2023-09-19T10:46:52;99898.78;;;18.69;99.52
78990;BME280;68390;52.130;21.218;2023-09-19T10:49:18;99900.56;;;18.64;100.00
78990;BME280;68390;52.130;21.218;2023-09-19T10:51:45;99894.84;;;18.59;100.00
78990;BME280;68390;52.130;21.218;2023-09-19T10:54:17;99902.97;;;18.60;100.00
78990;BME280;68390;52.130;21.218;2023-09-19T10:56:48;99898.75;;;18.58;100.00
78990;BME280;68390;52.130;21.218;2023-09-19T10:59:17;99899.78;;;18.57;100.00
78990;BME280;68390;52.130;21.218;2023-09-19T11:01:50;99898.25;;;18.61;100.00
78990;BME280;68390;52.130;21.218;2023-09-19T11:04:35;99882.88;;;18.58;100.00
78990;BME280;68390;52.130;21.218;2023-09-19T11:07:05;99886.50;;;18.59;100.00
78990;BME280;68390;52.130;21.218;2023-09-19T11:09:44;99888.81;;;18.62;100.00
78990;BME280;68390;52.130;21.218;2023-09-19T11:26:47;99901.94;;;18.73;100.00
78990;BME280;68390;52.130;21.218;2023-09-19T11:29:28;99897.22;;;18.74;100.00
78990;BME280;68390;52.130;21.218;2023-09-19T11:31:55;99900.00;;;18.74;100.00
78990;BME280;68390;52.130;21.218;2023-09-19T11:40:09;99910.75;;;18.70;100.00
78990;BME280;68390;52.130;21.218;2023-09-19T11:42:46;99913.78;;;18.68;100.00
78990;BME280;68390;52.130;21.218;2023-09-19T11:48:18;99907.28;;;18.75;100.00
78990;BME280;68390;52.130;21.218;2023-09-19T11:50:44;99914.31;;;18.77;100.00
78990;BME280;68390;52.130;21.218;2023-09-19T11:53:13;99915.50;;;18.81;100.00
78990;BME280;68390;52.130;21.218;2023-09-19T11:55:42;99908.00;;;18.82;100.00
78990;BME280;68390;52.130;21.218;2023-09-19T11:58:08;99907.94;;;18.88;100.00
78990;BME280;68390;52.130;21.218;2023-09-19T12:00:35;99912.78;;;18.93;100.00
78990;BME280;68390;52.130;21.218;2023-09-19T12:03:08;99917.03;;;18.95;100.00
78990;BME280;68390;52.130;21.218;2023-09-19T12:05:34;99917.03;;;18.95;100.00
78990;BME280;68390;52.130;21.218;2023-09-19T12:08:00;99911.47;;;18.95;100.00
78990;BME280;68390;52.130;21.218;2023-09-19T12:10:27;99917.78;;;19.02;100.00
78990;BME280;68390;52.130;21.218;2023-09-19T12:12:52;99918.84;;;19.01;100.00
78990;BME280;68390;52.130;21.218;2023-09-19T12:15:27;99923.72;;;19.06;100.00
78990;BME280;68390;52.130;21.218;2023-09-19T12:17:54;99919.00;;;19.06;100.00
78990;BME280;68390;52.130;21.218;2023-09-19T12:20:20;99923.47;;;19.08;100.00
78990;BME280;68390;52.130;21.218;2023-09-19T12:22:47;99924.34;;;19.08;100.00
78990;BME280;68390;52.130;21.218;2023-09-19T12:25:15;99932.91;;;19.06;100.00
78990;BME280;68390;52.130;21.218;2023-09-19T12:27:43;99933.16;;;19.05;100.00
78990;BME280;68390;52.130;21.218;2023-09-19T12:30:12;99942.81;;;19.02;100.00
78990;BME280;68390;52.130;21.218;2023-09-19T12:32:40;99935.53;;;19.01;100.00
78990;BME280;68390;52.130;21.218;2023-09-19T12:35:07;99933.00;;;19.00;100.00
78990;BME280;68390;52.130;21.218;2023-09-19T12:37:51;99944.84;;;18.95;100.00
78990;BME280;68390;52.130;21.218;2023-09-19T12:40:21;99954.06;;;18.96;100.00
78990;BME280;68390;52.130;21.218;2023-09-19T12:42:48;99961.31;;;18.97;100.00
78990;BME280;68390;52.130;21.218;2023-09-19T12:45:15;99956.44;;;18.92;100.00
78990;BME280;68390;52.130;21.218;2023-09-19T12:48:20;99965.56;;;18.99;100.00
78990;BME280;68390;52.130;21.218;2023-09-19T12:51:06;99969.91;;;18.95;100.00
78990;BME280;68390;52.130;21.218;2023-09-19T12:53:34;99962.63;;;18.94;100.00
78990;BME280;68390;52.130;21.218;2023-09-19T12:56:03;99965.66;;;18.93;100.00
78990;BME280;68390;52.130;21.218;2023-09-19T12:58:31;99957.53;;;18.91;100.00
78990;BME280;68390;52.130;21.218;2023-09-19T13:00:57;99953.44;;;18.94;100.00
78990;BME280;68390;52.130;21.218;2023-09-19T13:08:25;99946.16;;;18.93;100.00
78990;BME280;68390;52.130;21.218;2023-09-19T13:11:10;99952.59;;;18.93;100.00
78990;BME280;68390;52.130;21.218;2023-09-19T13:13:44;99953.31;;;18.89;100.00
78990;BME280;68390;52.130;21.218;2023-09-19T13:16:11;99945.19;;;18.87;100.00
78990;BME280;68390;52.130;21.218;2023-09-19T13:18:47;99945.81;;;18.89;100.00
78990;BME280;68390;52.130;21.218;2023-09-19T13:21:14;99954.38;;;18.88;100.00
78990;BME280;68390;52.130;21.218;2023-09-19T13:23:56;99952.47;;;18.88;100.00
78990;BME280;68390;52.130;21.218;2023-09-19T13:26:27;99954.84;;;18.85;100.00
78990;BME280;68390;52.130;21.218;2023-09-19T13:28:54;99951.44;;;18.83;100.00
78990;BME280;68390;52.130;21.218;2023-09-19T13:31:19;99947.69;;;18.77;100.00
78990;BME280;68390;52.130;21.218;2023-09-19T13:33:47;99961.25;;;18.85;100.00
78990;BME280;68390;52.130;21.218;2023-09-19T13:36:12;99955.69;;;18.85;100.00
78990;BME280;68390;52.130;21.218;2023-09-19T13:38:41;99954.00;;;18.84;100.00
78990;BME280;68390;52.130;21.218;2023-09-19T13:41:10;99959.78;;;18.83;100.00
78990;BME280;68390;52.130;21.218;2023-09-19T13:43:37;99955.69;;;18.85;100.00
78990;BME280;68390;52.130;21.218;2023-09-19T13:46:03;99954.16;;;18.89;100.00